Avalon, Victoria

10:08 PM EST on September 02, 2014 (GMT +1000)
Avalon | Change Station
CLOSE
Current Station
Airport
Location: Avalon,
Elevation: 33 ft
Nearby Weather Stations

Elev 33 ft 38.03 °S, 144.48 °E | Updated 8 minutes ago

Light Rain Showers
Light Showers Rain
46 °F
Feels Like 43 °F
N
7
Wind Variable Wind from SW

Today
High -- | Low -- °F
--% Chance of Precip.
Yesterday
High -- | Low -- °F
Precip. -- in
6:43 AM 6:01 PM
Waxing Crescent, 51% visible
Pressure 30.21 in
Visibility 6.2 miles
Clouds Scattered Clouds 2400 ft
Scattered Clouds 3700 ft
Scattered Clouds 4600 ft
Windchill 43 °F
Dew Point 43 °F
Humidity 87%
Rainfall 0.00 in
Snow Depth Not available.
UV 0 out of 12
Pollen Not available.
Air Quality Not available.
Flu Activity Not available.
METAR YMAV 021200Z AUTO 22006KT 180V240 9999 -SHRA SCT024 SCT037 SCT046 08/06 Q1023

More Conditions Fewer Conditions

Pressure 30.21 in
Visibility 6.2 miles
Clouds Scattered Clouds 2400 ft
Scattered Clouds 3700 ft
Scattered Clouds 4600 ft
Windchill 43 °F
Dew Point 43 °F
Humidity 87%
Rainfall 0.00 in
Snow Depth Not available.
UV 0 out of 12
Pollen Not available.
Air Quality Not available.
Flu Activity Not available.
METAR YMAV 021200Z AUTO 22006KT 180V240 9999 -SHRA SCT024 SCT037 SCT046 08/06 Q1023

More Conditions Fewer Conditions

10-Day Weather Forecast

Almanac

Astronomy

Sep. 02, 2014 Rise Set
Actual Time 6:43 AM EST 6:01 PM EST
Civil Twilight 6:16 AM EST 6:27 PM EST
Nautical Twilight 5:46 AM EST 6:58 PM EST
Astronomical Twilight 5:15 AM EST 7:28 PM EST
Moon 10:53 AM EST 12:20 AM EST
Length of Visible Light 12h 10m
Length of Day
11h 18m
Tomorrow will be 2m 20s longer.
Waxing Crescent, 51% of the Moon is Illuminated
Today
Waxing Crescent
Sep 8
Full
Sep 15
Last Quarter
Sep 24
New
Oct 1
First Quarter

Yesterday's Extremes

Country Highs Country Lows

Community

WunderPhotos

Upload Photos

1,749,622 photos uploaded!

WunderBlogs® & News

By Dr. Jeff Masters
Director of Meteorology, Weather Underground
By Kari Strenfel
Meteorologist, Weather Underground
By Christopher C. Burt
Weather Historian, Weather Underground
September 2, 2014
September 2, 2014
September 2, 2014

Nearby

Snow Depth

Not available.

Earthquake Activity

City Distance Mag. Time & Date
No recent earthquake activity has been reported nearby.
Minimum magnitude displayed is 2.5.

Coastal Water Temperatures

Place Temperature
No Stations Reporting

Nearby Weather Stations